createdAt,value
2018-12-24T00:03:05.140Z,0.50
2018-12-24T08:08:40.102Z,5.70
2018-12-24T08:25:56.918Z,6.00
2018-12-24T08:28:27.947Z,6.50
2018-12-24T08:31:58.337Z,6.80
2018-12-24T08:34:32.264Z,6.90
2018-12-24T08:37:06.153Z,7.00
2018-12-24T08:39:40.347Z,7.00
2018-12-24T08:42:17.338Z,7.10
2018-12-24T08:44:46.344Z,7.00
2018-12-24T08:47:23.236Z,7.20
2018-12-24T08:53:24.553Z,6.80
2018-12-24T09:00:11.698Z,6.50
2018-12-24T09:02:50.864Z,6.60
2018-12-24T09:05:42.286Z,6.80
2018-12-24T09:08:14.946Z,6.90
2018-12-24T09:10:43.973Z,7.00
2018-12-24T09:13:13.281Z,6.90
2018-12-24T09:16:22.374Z,6.90
2018-12-24T09:22:31.242Z,6.80
2018-12-24T09:25:09.066Z,6.90
2018-12-24T09:27:46.761Z,6.90
2018-12-24T09:30:26.178Z,7.00
2018-12-24T09:33:04.905Z,6.90
2018-12-24T09:35:46.510Z,6.90
2018-12-24T09:38:24.860Z,6.90
2018-12-24T09:40:54.175Z,6.80
2018-12-24T09:43:32.342Z,6.70
2018-12-24T09:46:02.095Z,6.60
2018-12-24T09:48:35.728Z,6.60
2018-12-24T09:51:08.965Z,6.60
2018-12-24T09:53:45.957Z,6.40
2018-12-24T09:56:23.633Z,6.20
2018-12-24T09:58:56.798Z,6.10
2018-12-24T10:01:27.684Z,5.90
2018-12-24T10:04:12.868Z,6.10
2018-12-24T10:06:44.723Z,6.20
2018-12-24T10:09:22.514Z,6.20
2018-12-24T10:11:59.801Z,6.30
2018-12-24T10:14:39.005Z,6.80
2018-12-24T10:17:08.666Z,8.10
2018-12-24T10:19:38.564Z,9.70
2018-12-24T10:22:12.309Z,10.70
2018-12-24T10:24:48.569Z,12.50
2018-12-24T10:27:26.497Z,14.50
2018-12-24T10:30:03.571Z,14.50
2018-12-24T10:32:33.403Z,13.20
2018-12-24T10:35:06.401Z,11.50
2018-12-24T10:37:36.254Z,11.40
2018-12-24T10:40:14.198Z,11.50
2018-12-24T10:42:52.248Z,11.50
2018-12-24T10:45:25.247Z,10.70
2018-12-24T10:47:54.141Z,10.00
2018-12-24T10:50:38.720Z,9.80
2018-12-24T10:53:09.137Z,9.70
2018-12-24T10:55:46.027Z,10.00
2018-12-24T10:58:35.507Z,9.20
2018-12-24T11:01:06.767Z,8.90
2018-12-24T11:03:42.753Z,8.30
2018-12-24T11:06:18.978Z,8.20
2018-12-24T11:08:56.159Z,8.10
2018-12-24T11:11:31.919Z,8.20
2018-12-24T11:14:05.066Z,8.10
2018-12-24T11:16:39.737Z,8.20
2018-12-24T11:19:27.928Z,8.20
2018-12-24T11:22:05.083Z,8.50
2018-12-24T11:29:22.003Z,8.30
2018-12-24T11:32:01.418Z,8.60
2018-12-24T11:38:23.527Z,8.60
2018-12-24T11:41:38.887Z,8.40
2018-12-24T11:49:37.685Z,8.30
2018-12-24T11:52:14.610Z,9.30
2018-12-24T11:54:54.690Z,9.70
2018-12-24T11:57:24.837Z,9.50
2018-12-24T12:02:47.626Z,9.00
2018-12-24T12:05:26.245Z,8.90
2018-12-24T12:11:34.033Z,9.00
2018-12-24T12:14:10.501Z,9.00
2018-12-24T12:16:44.702Z,8.60
2018-12-24T12:22:37.682Z,8.40
2018-12-24T12:36:03.076Z,8.40
2018-12-24T12:42:25.184Z,8.60
2018-12-24T13:11:41.873Z,10.70
2018-12-24T13:14:24.252Z,9.10
2018-12-24T13:17:13.931Z,9.00
2018-12-24T13:23:06.577Z,8.70
2018-12-24T13:26:23.970Z,8.60
2018-12-24T13:29:01.086Z,8.90
2018-12-24T13:31:37.397Z,8.90
2018-12-24T13:34:15.074Z,9.30
2018-12-24T13:40:05.407Z,10.00
2018-12-24T13:42:38.429Z,9.50
2018-12-24T13:45:16.126Z,9.30
2018-12-24T13:47:49.092Z,9.60
2018-12-24T13:50:22.245Z,9.90
2018-12-24T13:52:58.990Z,10.00
2018-12-24T13:55:37.153Z,9.50
2018-12-24T13:58:13.970Z,9.20
2018-12-24T14:00:51.266Z,8.80
2018-12-24T14:03:36.255Z,8.40
2018-12-24T14:06:39.744Z,8.00
2018-12-24T14:19:30.357Z,7.00
2018-12-24T14:22:13.746Z,6.90
2018-12-24T14:24:51.496Z,6.90
2018-12-24T14:27:30.910Z,6.70
2018-12-24T14:30:09.255Z,6.60
2018-12-24T14:35:26.440Z,6.40
2018-12-24T14:38:19.400Z,6.30
2018-12-24T14:41:06.525Z,6.30
2018-12-24T14:43:45.031Z,6.10
2018-12-24T14:46:27.796Z,6.00
2018-12-24T14:49:21.748Z,5.90
2018-12-24T14:52:38.712Z,5.70
2018-12-24T14:55:23.549Z,5.90
2018-12-24T14:58:02.237Z,5.90
2018-12-24T15:00:49.079Z,5.90
2018-12-24T15:03:26.653Z,5.80
2018-12-24T15:06:01.313Z,5.80
2018-12-24T15:15:23.889Z,5.50
2018-12-24T15:18:31.528Z,5.40
2018-12-24T15:21:10.185Z,5.50
2018-12-24T15:23:58.329Z,5.40
2018-12-24T15:29:09.523Z,5.60
2018-12-24T15:44:46.923Z,5.10
2018-12-24T15:47:33.882Z,5.10
2018-12-24T15:50:12.199Z,5.10
2018-12-24T15:52:46.834Z,5.10
2018-12-24T15:55:21.078Z,5.30
2018-12-24T16:00:39.622Z,5.50
2018-12-24T16:03:18.825Z,5.50
2018-12-24T16:06:02.765Z,5.40
2018-12-24T16:08:40.921Z,5.30
2018-12-24T16:11:25.918Z,5.20
2018-12-24T16:13:58.938Z,5.10
2018-12-24T16:16:41.774Z,5.00
2018-12-24T16:19:15.226Z,4.90
2018-12-24T16:22:06.123Z,4.90
2018-12-24T16:24:37.206Z,4.70
2018-12-24T16:27:22.194Z,4.80
2018-12-24T16:29:56.023Z,4.80
2018-12-24T16:32:28.129Z,4.80
2018-12-24T16:34:58.872Z,4.90
2018-12-24T16:37:37.833Z,4.90
2018-12-24T16:40:11.114Z,4.90
2018-12-24T16:42:52.219Z,4.90
2018-12-24T16:45:30.854Z,4.90
2018-12-24T16:48:01.551Z,4.70
2018-12-24T16:50:32.607Z,4.60
2018-12-24T17:03:18.653Z,4.50
2018-12-24T17:05:58.391Z,4.50
2018-12-24T17:08:32.539Z,4.40
2018-12-24T17:14:42.306Z,4.20
2018-12-24T17:39:00.758Z,3.70
2018-12-24T17:41:40.645Z,3.70
2018-12-24T17:44:29.802Z,3.60
2018-12-24T17:47:06.452Z,3.60
2018-12-24T17:50:14.353Z,3.40
2018-12-24T17:53:13.721Z,3.30
2018-12-24T17:56:02.013Z,3.00
2018-12-24T17:58:35.717Z,2.80
2018-12-24T18:01:30.214Z,2.70
2018-12-24T18:10:17.653Z,2.40
2018-12-24T18:13:06.337Z,2.30
2018-12-24T18:15:39.710Z,2.30
2018-12-24T18:18:18.294Z,2.30
2018-12-24T18:24:09.185Z,2.20
2018-12-24T18:30:22.595Z,2.20
2018-12-24T18:33:05.599Z,2.40
2018-12-24T18:35:59.688Z,2.40
2018-12-24T18:38:41.209Z,2.40
2018-12-24T18:41:26.068Z,2.40
2018-12-24T18:44:21.442Z,2.40
2018-12-24T18:46:51.382Z,2.40
2018-12-24T18:49:23.885Z,2.30
2018-12-24T18:51:57.217Z,2.20
2018-12-24T18:54:39.773Z,2.10
2018-12-24T19:04:06.020Z,1.70
2018-12-24T19:06:41.204Z,1.60
2018-12-24T19:09:11.256Z,1.50
2018-12-24T19:11:42.907Z,1.40
2018-12-24T19:14:18.153Z,1.40
2018-12-24T19:17:30.569Z,1.40
2018-12-24T19:20:11.166Z,1.80
2018-12-24T19:22:44.555Z,2.00
2018-12-24T19:25:18.514Z,2.10
2018-12-24T19:31:24.344Z,2.10
2018-12-24T19:33:58.013Z,2.20
2018-12-24T19:39:40.350Z,2.20
2018-12-24T19:42:11.863Z,2.50
2018-12-24T19:44:52.093Z,2.70
2018-12-24T19:47:27.061Z,2.90
2018-12-24T19:50:00.311Z,3.00
2018-12-24T19:52:30.201Z,3.00
2018-12-24T19:55:08.075Z,3.20
2018-12-24T19:57:41.118Z,3.20
2018-12-24T20:00:18.124Z,3.10
2018-12-24T20:02:56.783Z,3.00
2018-12-24T20:05:30.091Z,2.90
2018-12-24T20:08:08.805Z,2.90
2018-12-24T20:10:46.085Z,3.00
2018-12-24T20:13:47.061Z,3.00
2018-12-24T20:16:25.352Z,3.00
2018-12-24T20:18:59.214Z,2.70
2018-12-24T20:21:33.300Z,2.60
2018-12-24T20:24:07.091Z,2.30
2018-12-24T20:26:42.071Z,2.00
2018-12-24T20:29:12.082Z,1.80
2018-12-24T20:31:57.644Z,1.50
2018-12-24T20:34:32.607Z,1.30
2018-12-24T20:37:10.873Z,1.20
2018-12-24T20:39:45.113Z,1.20
2018-12-24T20:42:25.085Z,1.10
2018-12-24T20:45:03.769Z,1.10
2018-12-24T20:47:41.108Z,1.00
2018-12-24T20:50:18.655Z,1.00
2018-12-24T20:52:49.869Z,1.00
2018-12-24T20:55:28.663Z,1.00
2018-12-24T20:58:02.737Z,1.10
2018-12-24T21:00:36.012Z,1.10
2018-12-24T21:03:06.603Z,1.20
2018-12-24T21:05:52.698Z,1.30
2018-12-24T21:13:30.495Z,1.30
2018-12-24T21:16:09.382Z,1.30
2018-12-24T21:18:43.709Z,1.40
2018-12-24T21:21:17.666Z,1.40
2018-12-24T21:23:51.623Z,1.40
2018-12-24T21:26:24.576Z,1.40
2018-12-24T21:28:57.532Z,1.40
2018-12-24T21:31:38.414Z,1.50
2018-12-24T21:34:15.566Z,1.50
2018-12-24T21:36:50.267Z,1.50
2018-12-24T21:39:24.555Z,1.50
2018-12-24T21:42:25.667Z,1.40
2018-12-24T21:44:55.675Z,1.40
2018-12-24T21:47:34.297Z,1.30
2018-12-24T21:50:11.639Z,1.20
2018-12-24T21:52:52.121Z,1.10
2018-12-24T21:55:26.374Z,1.00
2018-12-24T21:58:17.719Z,0.90
2018-12-24T22:00:59.898Z,0.90
2018-12-24T22:10:30.899Z,0.50
2018-12-24T22:13:35.146Z,0.40
2018-12-24T22:16:12.636Z,0.30
2018-12-24T22:18:56.698Z,0.30
2018-12-24T22:24:40.910Z,0.40
2018-12-24T22:27:50.127Z,0.40
2018-12-24T22:30:28.989Z,0.50
2018-12-24T22:33:07.221Z,0.50
2018-12-24T22:35:46.303Z,0.40
2018-12-24T22:41:45.854Z,0.40
2018-12-24T22:44:36.973Z,0.40
2018-12-24T22:47:23.938Z,0.40
2018-12-24T22:50:11.958Z,0.50
2018-12-24T22:53:05.078Z,0.50
2018-12-24T22:55:52.714Z,0.50
2018-12-24T22:58:25.366Z,0.50
2018-12-24T23:01:29.931Z,0.60
2018-12-24T23:04:41.738Z,0.60
2018-12-24T23:07:45.382Z,0.70
2018-12-24T23:17:42.309Z,1.10
2018-12-24T23:27:16.653Z,1.30
2018-12-24T23:30:17.242Z,1.10
2018-12-24T23:36:42.465Z,0.70
2018-12-24T23:49:44.920Z,0.10
2018-12-24T23:52:33.529Z,-0.10
2018-12-24T23:55:13.742Z,-0.20
2018-12-24T23:58:05.817Z,-0.20
